createdAt,value
2023-09-28T00:00:52.761Z,9.43
2023-09-28T00:02:55.223Z,10.80
2023-09-28T00:04:57.094Z,8.80
2023-09-28T00:06:58.800Z,9.60
2023-09-28T00:09:00.479Z,10.13
2023-09-28T00:11:02.620Z,9.73
2023-09-28T00:13:04.600Z,9.43
2023-09-28T00:15:08.351Z,10.23
2023-09-28T00:17:11.534Z,8.70
2023-09-28T00:19:13.244Z,9.20
2023-09-28T00:21:14.894Z,8.30
2023-09-28T00:23:16.664Z,9.47
2023-09-28T00:25:18.931Z,10.70
2023-09-28T00:27:20.670Z,10.43
2023-09-28T00:29:22.324Z,9.73
2023-09-28T00:31:23.986Z,10.13
2023-09-28T00:33:27.142Z,11.17
2023-09-28T00:35:28.838Z,10.43
2023-09-28T00:37:30.522Z,9.03
2023-09-28T00:39:32.191Z,9.67
2023-09-28T00:41:33.890Z,8.90
2023-09-28T00:43:35.499Z,8.90
2023-09-28T00:45:38.444Z,9.07
2023-09-28T00:47:40.833Z,8.70
2023-09-28T01:01:30.951Z,8.90
2023-09-28T01:03:32.793Z,8.70
2023-09-28T01:05:34.850Z,8.33
2023-09-28T01:07:36.602Z,9.33
2023-09-28T01:09:38.269Z,9.97
2023-09-28T01:11:40.061Z,9.27
2023-09-28T01:13:41.662Z,9.20
2023-09-28T01:15:44.282Z,9.03
2023-09-28T01:17:47.421Z,10.10
2023-09-28T01:19:49.529Z,9.50
2023-09-28T01:21:51.215Z,10.17
2023-09-28T01:23:54.324Z,8.77
2023-09-28T01:25:58.518Z,9.70
2023-09-28T01:28:00.276Z,9.70
2023-09-28T01:30:04.218Z,9.73
2023-09-28T01:32:05.917Z,10.20
2023-09-28T01:34:07.646Z,9.83
2023-09-28T01:36:09.389Z,12.27
2023-09-28T01:38:19.170Z,10.23
2023-09-28T01:40:22.339Z,10.57
2023-09-28T01:42:23.979Z,10.93
2023-09-28T01:44:25.587Z,10.60
2023-09-28T01:46:27.318Z,10.17
2023-09-28T01:48:29.043Z,10.83
2023-09-28T01:50:31.000Z,11.77
2023-09-28T01:52:32.664Z,10.03
2023-09-28T01:54:34.337Z,10.13
2023-09-28T01:56:37.727Z,10.37
2023-09-28T01:58:40.631Z,10.00
2023-09-28T02:00:42.290Z,10.13
2023-09-28T02:02:44.609Z,14.63
2023-09-28T02:04:46.533Z,11.20
2023-09-28T02:06:48.221Z,10.50
2023-09-28T02:08:50.066Z,10.07
2023-09-28T02:10:51.715Z,11.17
2023-09-28T02:12:55.094Z,10.30
2023-09-28T02:14:56.727Z,10.23
2023-09-28T02:16:58.726Z,10.90
2023-09-28T02:19:00.418Z,10.40
2023-09-28T02:21:02.122Z,11.17
2023-09-28T02:23:04.152Z,10.53
2023-09-28T02:25:06.264Z,10.60
2023-09-28T02:27:07.991Z,10.10
2023-09-28T02:29:11.130Z,10.17
2023-09-28T02:31:12.938Z,12.07
2023-09-28T02:33:14.700Z,11.13
2023-09-28T02:35:18.146Z,10.57
2023-09-28T02:37:20.066Z,10.87
2023-09-28T02:39:21.737Z,12.67
2023-09-28T02:41:23.274Z,13.50
2023-09-28T02:43:25.004Z,13.43
2023-09-28T02:45:28.295Z,11.43
2023-09-28T02:47:30.393Z,11.83
2023-09-28T02:49:32.580Z,12.00
2023-09-28T02:51:34.339Z,13.10
2023-09-28T02:53:35.956Z,11.00
2023-09-28T02:55:37.727Z,12.37
2023-09-28T02:57:39.665Z,11.93
2023-09-28T02:59:41.459Z,11.90
2023-09-28T03:01:44.620Z,11.70
2023-09-28T03:03:46.373Z,13.43
2023-09-28T03:05:48.155Z,12.27
2023-09-28T03:07:50.649Z,12.37
2023-09-28T03:09:52.477Z,13.30
2023-09-28T03:11:54.096Z,12.80
2023-09-28T03:13:55.982Z,12.83
2023-09-28T03:15:58.020Z,11.47
2023-09-28T03:18:01.458Z,11.63
2023-09-28T03:20:03.527Z,12.43
2023-09-28T03:22:05.418Z,13.50
2023-09-28T03:24:08.486Z,15.63
2023-09-28T03:26:10.338Z,13.93
2023-09-28T03:28:12.092Z,15.57
2023-09-28T03:30:14.905Z,14.00
2023-09-28T03:32:16.616Z,15.63
2023-09-28T03:34:19.629Z,13.20
2023-09-28T03:36:21.308Z,13.40
2023-09-28T03:38:22.940Z,14.17
2023-09-28T03:40:24.859Z,14.13
2023-09-28T03:42:26.482Z,13.70
2023-09-28T03:44:28.128Z,13.83
2023-09-28T03:46:30.005Z,13.57
2023-09-28T03:48:32.036Z,12.37
2023-09-28T03:50:35.011Z,12.20
2023-09-28T03:52:37.186Z,12.70
2023-09-28T03:54:38.942Z,11.87
2023-09-28T03:56:40.570Z,12.77
2023-09-28T03:58:42.367Z,11.20
2023-09-28T04:00:44.240Z,11.53
2023-09-28T04:02:52.183Z,11.80
2023-09-28T04:04:55.746Z,10.53
2023-09-28T04:06:58.750Z,10.77
2023-09-28T04:09:00.412Z,11.93
2023-09-28T04:11:03.371Z,8.57
2023-09-28T04:13:04.990Z,8.90
2023-09-28T04:15:07.656Z,8.37
2023-09-28T04:17:09.474Z,10.53
2023-09-28T04:19:11.165Z,9.33
2023-09-28T04:21:12.918Z,9.03
2023-09-28T04:23:15.915Z,9.57
2023-09-28T04:25:18.818Z,12.13
2023-09-28T04:27:20.405Z,9.90
2023-09-28T04:29:22.088Z,9.90
2023-09-28T04:31:23.673Z,10.97
2023-09-28T04:33:25.310Z,9.83
2023-09-28T04:35:27.099Z,10.50
2023-09-28T04:37:28.882Z,10.27
2023-09-28T04:39:31.874Z,10.70
2023-09-28T04:41:33.530Z,13.27
2023-09-28T04:43:35.218Z,10.43
2023-09-28T04:45:36.874Z,10.70
2023-09-28T04:47:38.665Z,10.73
2023-09-28T04:49:40.346Z,10.87
2023-09-28T04:51:42.046Z,10.57
2023-09-28T04:53:43.663Z,10.43
2023-09-28T04:55:46.604Z,10.97
2023-09-28T04:57:48.369Z,10.90
2023-09-28T04:59:50.249Z,9.60
2023-09-28T05:01:51.986Z,10.10
2023-09-28T05:03:53.837Z,10.30
2023-09-28T05:05:55.639Z,10.30
2023-09-28T05:07:57.333Z,10.43
2023-09-28T05:09:58.908Z,10.60
2023-09-28T05:12:02.274Z,10.60
2023-09-28T05:14:06.146Z,9.20
2023-09-28T05:16:07.849Z,9.07
2023-09-28T05:18:09.542Z,12.23
2023-09-28T05:20:12.207Z,9.30
2023-09-28T05:22:13.909Z,11.63
2023-09-28T05:24:15.529Z,8.37
2023-09-28T05:26:17.310Z,10.07
2023-09-28T05:28:20.315Z,10.07
2023-09-28T05:30:21.990Z,9.47
2023-09-28T05:32:23.710Z,10.40
2023-09-28T05:34:25.507Z,9.90
2023-09-28T05:36:27.433Z,8.63
2023-09-28T05:38:29.112Z,11.53
2023-09-28T05:40:30.925Z,10.03
2023-09-28T05:42:32.620Z,9.50
2023-09-28T05:44:36.030Z,10.13
2023-09-28T05:46:37.686Z,10.00
2023-09-28T05:48:39.358Z,9.53
2023-09-28T05:50:40.934Z,9.40
2023-09-28T05:52:42.534Z,10.60
2023-09-28T05:54:44.273Z,8.77
2023-09-28T05:56:46.057Z,8.77
2023-09-28T05:58:47.755Z,10.87
2023-09-28T06:00:50.943Z,10.50
2023-09-28T06:02:52.602Z,9.23
2023-09-28T06:04:54.341Z,12.07
2023-09-28T06:06:56.003Z,10.47
2023-09-28T06:08:57.828Z,11.10
2023-09-28T06:11:11.924Z,9.50
2023-09-28T06:13:14.438Z,10.27
2023-09-28T06:15:16.076Z,10.43
2023-09-28T06:17:19.153Z,10.57
2023-09-28T06:19:21.038Z,9.70
2023-09-28T06:21:22.667Z,9.40
2023-09-28T06:23:24.462Z,9.37
2023-09-28T06:25:26.254Z,14.10
2023-09-28T06:27:28.162Z,11.63
2023-09-28T06:29:29.761Z,10.30
2023-09-28T06:31:31.656Z,10.13
2023-09-28T06:33:34.692Z,10.30
2023-09-28T06:35:36.367Z,11.03
2023-09-28T06:37:38.178Z,10.57
2023-09-28T06:39:39.801Z,11.90
2023-09-28T06:41:41.371Z,10.73
2023-09-28T06:43:43.363Z,10.97
2023-09-28T06:45:45.270Z,9.57
2023-09-28T06:47:56.960Z,12.47
2023-09-28T06:50:02.745Z,9.43
2023-09-28T06:52:04.783Z,9.60
2023-09-28T06:54:08.094Z,10.53
2023-09-28T06:56:14.509Z,10.20
2023-09-28T06:58:16.809Z,9.30
2023-09-28T07:00:18.660Z,9.60
2023-09-28T07:02:20.505Z,9.90
2023-09-28T07:04:22.110Z,9.47
2023-09-28T07:06:25.460Z,9.33
2023-09-28T07:08:27.208Z,8.57
2023-09-28T07:10:28.837Z,11.63
2023-09-28T07:12:30.815Z,8.70
2023-09-28T07:14:32.542Z,8.50
2023-09-28T07:16:34.167Z,9.70
2023-09-28T07:18:37.147Z,8.93
2023-09-28T07:20:38.785Z,11.40
2023-09-28T07:22:41.821Z,8.87
2023-09-28T07:24:43.518Z,10.70
2023-09-28T07:26:45.305Z,11.43
2023-09-28T07:28:47.052Z,10.10
2023-09-28T07:30:48.858Z,10.50
2023-09-28T07:32:51.188Z,7.50
2023-09-28T07:34:53.089Z,10.93
2023-09-28T07:36:54.853Z,8.63
2023-09-28T07:38:57.966Z,7.60
2023-09-28T07:41:00.117Z,10.33
2023-09-28T07:43:01.966Z,7.27
2023-09-28T07:45:04.316Z,7.90
2023-09-28T07:47:06.038Z,7.73
2023-09-28T07:49:07.652Z,8.97
2023-09-28T07:51:09.278Z,11.37
2023-09-28T07:53:10.882Z,11.10
2023-09-28T07:55:14.177Z,9.23
2023-09-28T07:57:16.123Z,7.50
2023-09-28T07:59:17.846Z,8.17
2023-09-28T08:01:19.725Z,8.40
2023-09-28T08:03:21.598Z,8.07
2023-09-28T08:05:23.434Z,9.53
2023-09-28T08:07:25.333Z,7.70
2023-09-28T08:09:27.048Z,7.07
2023-09-28T08:11:30.158Z,9.47
2023-09-28T08:13:31.810Z,9.00
2023-09-28T08:15:36.657Z,7.17
2023-09-28T08:17:43.227Z,8.03
2023-09-28T08:19:44.888Z,7.40
2023-09-28T08:21:46.807Z,7.80
2023-09-28T08:23:48.566Z,8.33
2023-09-28T08:25:50.226Z,7.30
2023-09-28T08:27:53.318Z,7.17
2023-09-28T08:29:55.292Z,7.83
2023-09-28T08:31:59.644Z,7.50
2023-09-28T08:34:01.656Z,9.00
2023-09-28T08:36:03.659Z,9.57
2023-09-28T08:38:06.054Z,7.47
2023-09-28T08:40:09.123Z,8.90
2023-09-28T08:42:13.336Z,10.00
2023-09-28T08:44:16.636Z,7.93
2023-09-28T08:46:31.693Z,7.13
2023-09-28T08:48:45.587Z,7.63
2023-09-28T08:50:51.950Z,7.13
2023-09-28T08:52:55.302Z,8.07
2023-09-28T08:54:57.510Z,7.20
2023-09-28T08:57:00.143Z,7.43
2023-09-28T08:59:02.934Z,7.50
2023-09-28T09:01:07.853Z,7.60
2023-09-28T09:03:10.756Z,7.37
2023-09-28T09:05:12.610Z,8.20
2023-09-28T09:07:15.138Z,9.67
2023-09-28T09:09:18.985Z,8.70
2023-09-28T09:11:22.171Z,7.50
2023-09-28T09:13:23.849Z,7.07
2023-09-28T09:15:25.793Z,7.50
2023-09-28T09:17:35.098Z,8.47
2023-09-28T09:19:37.438Z,7.00
2023-09-28T09:21:40.874Z,8.43
2023-09-28T09:23:42.846Z,7.20
2023-09-28T09:25:46.616Z,7.87
2023-09-28T09:27:48.426Z,7.20
2023-09-28T09:29:50.059Z,7.13
2023-09-28T09:31:51.702Z,7.20
2023-09-28T09:33:54.727Z,9.27
2023-09-28T09:35:56.427Z,7.77
2023-09-28T09:37:58.191Z,9.20
2023-09-28T09:40:10.032Z,7.37
2023-09-28T09:42:11.923Z,8.53
2023-09-28T09:44:17.784Z,8.80
2023-09-28T09:46:19.575Z,7.10
2023-09-28T09:48:22.913Z,8.40
2023-09-28T09:50:26.417Z,9.00
2023-09-28T09:52:29.676Z,6.60
2023-09-28T09:54:32.557Z,7.60
2023-09-28T09:56:36.374Z,6.80
2023-09-28T09:58:41.508Z,7.00
2023-09-28T10:00:44.244Z,6.20
2023-09-28T10:02:47.803Z,9.10
2023-09-28T10:04:52.769Z,7.00
2023-09-28T10:06:55.881Z,6.80
2023-09-28T10:08:58.053Z,7.60
2023-09-28T10:11:01.823Z,6.87
2023-09-28T10:13:04.078Z,13.37
2023-09-28T10:15:07.279Z,7.00
2023-09-28T10:17:09.170Z,6.93
2023-09-28T10:19:12.524Z,10.60
2023-09-28T10:21:15.172Z,8.50
2023-09-28T10:23:23.173Z,7.40
2023-09-28T10:25:24.837Z,7.03
2023-09-28T10:27:26.796Z,11.90
2023-09-28T10:29:28.491Z,7.07
2023-09-28T10:31:41.623Z,6.73
2023-09-28T10:33:58.078Z,8.00
2023-09-28T10:36:12.446Z,7.10
2023-09-28T10:38:22.370Z,7.17
2023-09-28T10:40:31.296Z,8.27
2023-09-28T10:42:38.902Z,6.03
2023-09-28T10:44:46.623Z,9.60
2023-09-28T10:46:49.352Z,6.60
2023-09-28T10:48:51.140Z,8.17
2023-09-28T10:50:53.061Z,6.47
2023-09-28T10:52:54.775Z,7.23
2023-09-28T10:54:58.291Z,6.90
2023-09-28T10:57:00.049Z,6.87
2023-09-28T10:59:01.710Z,6.30
2023-09-28T11:01:04.175Z,6.87
2023-09-28T11:03:06.100Z,6.17
2023-09-28T11:05:09.640Z,7.37
2023-09-28T11:07:12.092Z,7.30
2023-09-28T11:09:14.325Z,6.33
2023-09-28T11:11:17.349Z,6.60
2023-09-28T11:13:18.968Z,6.40
2023-09-28T11:15:20.629Z,5.67
2023-09-28T11:17:22.722Z,6.57
2023-09-28T11:19:24.765Z,6.17
2023-09-28T11:21:27.068Z,6.40
2023-09-28T11:23:29.348Z,7.40
2023-09-28T11:25:44.889Z,6.00
2023-09-28T11:27:49.596Z,6.03
2023-09-28T11:29:55.144Z,8.10
2023-09-28T11:31:56.922Z,6.20
2023-09-28T11:33:58.903Z,8.33
2023-09-28T11:36:00.729Z,6.10
2023-09-28T11:38:02.968Z,6.50
2023-09-28T11:40:05.860Z,7.47
2023-09-28T11:42:09.953Z,5.37
2023-09-28T11:44:20.101Z,5.97
2023-09-28T11:46:22.873Z,6.90
2023-09-28T11:48:25.842Z,7.00
2023-09-28T11:50:28.959Z,6.10
2023-09-28T11:52:30.640Z,6.27
2023-09-28T11:54:32.351Z,13.07
2023-09-28T11:56:34.567Z,5.63
2023-09-28T11:58:36.602Z,6.17
2023-09-28T12:00:40.062Z,7.53
2023-09-28T12:02:41.766Z,6.97
2023-09-28T12:04:43.600Z,7.50
2023-09-28T12:06:45.701Z,6.13
2023-09-28T12:08:50.600Z,6.47
2023-09-28T12:10:52.953Z,7.07
2023-09-28T12:12:54.591Z,6.03
2023-09-28T12:14:56.122Z,5.70
2023-09-28T12:16:59.474Z,6.60
2023-09-28T12:19:01.231Z,6.73
2023-09-28T12:21:02.946Z,6.30
2023-09-28T12:23:04.837Z,6.13
2023-09-28T12:25:07.708Z,6.10
2023-09-28T12:27:09.479Z,7.00
2023-09-28T12:29:12.017Z,4.43
2023-09-28T12:31:13.833Z,7.60
2023-09-28T12:33:17.016Z,5.30
2023-09-28T12:35:18.702Z,5.30
2023-09-28T12:37:20.349Z,7.20
2023-09-28T12:39:21.985Z,6.30
2023-09-28T12:41:23.733Z,6.60
2023-09-28T12:43:25.349Z,4.33
2023-09-28T12:45:27.064Z,4.40
2023-09-28T12:47:28.946Z,5.73
2023-09-28T12:49:32.213Z,9.27
2023-09-28T12:51:33.915Z,6.10
2023-09-28T12:53:35.697Z,6.50
2023-09-28T12:55:37.849Z,5.30
2023-09-28T12:57:39.556Z,8.13
2023-09-28T12:59:41.469Z,5.37
2023-09-28T13:01:43.385Z,8.47
2023-09-28T13:03:45.174Z,7.10
2023-09-28T13:05:48.428Z,5.40
2023-09-28T13:07:50.185Z,6.77
2023-09-28T13:09:51.809Z,7.83
2023-09-28T13:11:53.476Z,6.13
2023-09-28T13:13:55.774Z,7.77
2023-09-28T13:15:57.739Z,7.57
2023-09-28T13:17:59.560Z,6.17
2023-09-28T13:20:01.274Z,5.57
2023-09-28T13:22:04.380Z,8.43
2023-09-28T13:24:15.949Z,6.03
2023-09-28T13:26:18.980Z,6.97
2023-09-28T13:28:20.677Z,10.93
2023-09-28T13:30:22.714Z,6.83
2023-09-28T13:32:24.362Z,6.03
2023-09-28T13:34:27.053Z,8.00
2023-09-28T13:36:28.746Z,5.83
2023-09-28T13:38:32.095Z,5.80
2023-09-28T13:40:33.891Z,6.17
2023-09-28T13:42:35.536Z,6.23
2023-09-28T13:44:37.662Z,7.97
2023-09-28T13:46:39.439Z,6.10
2023-09-28T13:48:41.174Z,6.30
2023-09-28T13:50:42.909Z,5.17
2023-09-28T13:52:44.713Z,5.80
2023-09-28T13:54:47.802Z,7.83
2023-09-28T13:56:49.644Z,6.30
2023-09-28T13:58:51.415Z,7.13
2023-09-28T14:00:53.317Z,4.93
2023-09-28T14:02:55.215Z,8.30
2023-09-28T14:04:57.294Z,7.60
2023-09-28T14:06:59.122Z,9.73
2023-09-28T14:09:00.789Z,6.10
2023-09-28T14:11:09.379Z,6.37
2023-09-28T14:13:10.980Z,6.20
2023-09-28T14:15:12.688Z,5.60
2023-09-28T14:17:19.134Z,5.33
2023-09-28T14:19:26.674Z,5.80
2023-09-28T14:21:28.324Z,8.17
2023-09-28T14:23:29.989Z,6.90
2023-09-28T14:25:31.878Z,5.90
2023-09-28T14:27:34.860Z,6.20
2023-09-28T14:29:36.573Z,6.00
2023-09-28T14:31:38.454Z,4.50
2023-09-28T14:33:40.140Z,4.93
2023-09-28T14:35:41.912Z,5.43
2023-09-28T14:37:43.712Z,6.17
2023-09-28T14:39:45.336Z,6.90
2023-09-28T14:41:47.281Z,5.70
2023-09-28T14:43:51.720Z,5.93
2023-09-28T14:45:53.381Z,6.10
2023-09-28T14:47:55.259Z,6.13
2023-09-28T14:49:57.196Z,6.10
2023-09-28T14:51:58.832Z,5.80
2023-09-28T14:54:00.493Z,6.50
2023-09-28T14:56:02.286Z,5.97
2023-09-28T14:58:04.292Z,5.47
2023-09-28T15:00:08.378Z,4.77
2023-09-28T15:02:10.126Z,5.60
2023-09-28T15:04:12.009Z,5.90
2023-09-28T15:06:14.006Z,6.70
2023-09-28T15:08:15.765Z,4.87
2023-09-28T15:10:17.441Z,6.10
2023-09-28T15:12:19.101Z,5.87
2023-09-28T15:14:20.861Z,5.53
2023-09-28T15:16:23.923Z,6.87
2023-09-28T15:18:25.761Z,5.40
2023-09-28T15:20:27.656Z,6.53
2023-09-28T15:22:29.363Z,6.03
2023-09-28T15:24:30.984Z,5.20
2023-09-28T15:26:33.122Z,5.77
2023-09-28T15:28:35.208Z,6.13
2023-09-28T15:30:37.385Z,6.93
2023-09-28T15:32:41.663Z,5.63
2023-09-28T15:34:43.957Z,4.63
2023-09-28T15:36:46.073Z,7.93
2023-09-28T15:38:47.773Z,4.97
2023-09-28T15:40:49.522Z,6.87
2023-09-28T15:42:51.273Z,7.40
2023-09-28T15:44:53.254Z,5.30
2023-09-28T15:46:56.405Z,5.83
2023-09-28T15:49:00.809Z,8.20
2023-09-28T15:51:02.582Z,4.50
2023-09-28T15:53:05.409Z,5.00
2023-09-28T15:55:07.871Z,5.67
2023-09-28T15:57:09.704Z,5.33
2023-09-28T15:59:11.460Z,5.23
2023-09-28T16:01:13.366Z,5.80
2023-09-28T16:03:15.097Z,5.63
2023-09-28T16:05:18.313Z,8.83
2023-09-28T16:07:20.015Z,7.10
2023-09-28T16:09:21.894Z,6.93
2023-09-28T16:11:23.707Z,6.17
2023-09-28T16:13:25.456Z,5.60
2023-09-28T16:15:27.215Z,7.63
2023-09-28T16:17:28.896Z,6.77
2023-09-28T16:19:30.694Z,6.17
2023-09-28T16:21:33.983Z,6.60
2023-09-28T16:23:35.696Z,5.40
2023-09-28T16:25:37.511Z,7.47
2023-09-28T16:27:39.284Z,6.00
2023-09-28T16:29:41.108Z,6.17
2023-09-28T16:31:42.929Z,5.27
2023-09-28T16:33:44.688Z,7.37
2023-09-28T16:35:46.542Z,6.23
2023-09-28T16:37:49.550Z,5.67
2023-09-28T16:39:51.232Z,6.70
2023-09-28T16:41:52.905Z,6.37
2023-09-28T16:43:54.567Z,8.80
2023-09-28T16:45:56.407Z,5.97
2023-09-28T16:47:58.482Z,12.73
2023-09-28T16:50:00.199Z,7.33
2023-09-28T16:52:01.859Z,7.63
2023-09-28T16:54:05.312Z,9.40
2023-09-28T16:56:06.982Z,8.67
2023-09-28T16:58:09.224Z,6.70
2023-09-28T17:00:11.605Z,6.00
2023-09-28T17:02:13.535Z,8.77
2023-09-28T17:04:15.398Z,5.60
2023-09-28T17:06:17.175Z,7.93
2023-09-28T17:08:18.859Z,6.50
2023-09-28T17:10:22.071Z,6.17
2023-09-28T17:12:37.241Z,6.77
2023-09-28T17:14:45.019Z,7.30
2023-09-28T17:16:48.875Z,7.20
2023-09-28T17:18:50.524Z,5.57
2023-09-28T17:20:52.536Z,6.80
2023-09-28T17:22:54.238Z,8.77
2023-09-28T17:24:56.057Z,6.10
2023-09-28T17:26:59.045Z,6.57
2023-09-28T17:29:00.765Z,8.23
2023-09-28T17:31:02.871Z,9.00
2023-09-28T17:33:05.299Z,7.73
2023-09-28T17:35:08.043Z,6.40
2023-09-28T17:37:10.117Z,5.30
2023-09-28T17:39:11.916Z,5.60
2023-09-28T17:41:13.805Z,7.13
2023-09-28T17:43:17.089Z,8.07
2023-09-28T17:45:18.961Z,15.00
2023-09-28T17:47:20.673Z,7.87
2023-09-28T17:49:22.369Z,7.20
2023-09-28T17:51:24.053Z,7.97
2023-09-28T17:53:26.126Z,8.97
2023-09-28T17:55:27.961Z,6.40
2023-09-28T17:57:29.861Z,6.43
2023-09-28T17:59:35.398Z,7.00
2023-09-28T18:01:37.216Z,6.10
2023-09-28T18:03:39.383Z,5.77
2023-09-28T18:05:41.324Z,8.17
2023-09-28T18:07:43.366Z,7.60
2023-09-28T18:09:46.468Z,6.10
2023-09-28T18:11:48.162Z,7.50
2023-09-28T18:13:50.709Z,6.00
2023-09-28T18:15:53.834Z,7.30
2023-09-28T18:17:56.688Z,6.20
2023-09-28T18:19:58.384Z,8.80
2023-09-28T18:22:00.451Z,6.90
2023-09-28T18:24:02.312Z,5.60
2023-09-28T18:26:04.260Z,6.13
2023-09-28T18:28:06.768Z,8.33
2023-09-28T18:30:09.233Z,10.03
2023-09-28T18:32:12.610Z,6.60
2023-09-28T18:34:14.690Z,6.80
2023-09-28T18:36:17.125Z,7.50
2023-09-28T18:38:18.848Z,8.63
2023-09-28T18:40:20.681Z,6.73
2023-09-28T18:42:22.550Z,6.10
2023-09-28T18:44:24.275Z,6.30
2023-09-28T18:46:26.257Z,5.53
2023-09-28T18:48:29.450Z,9.03
2023-09-28T18:50:31.189Z,6.40
2023-09-28T18:52:32.998Z,5.50
2023-09-28T18:54:35.093Z,5.67
2023-09-28T18:56:36.691Z,8.20
2023-09-28T18:58:39.026Z,7.50
2023-09-28T19:00:40.836Z,6.17
2023-09-28T19:02:42.776Z,6.97
2023-09-28T19:04:46.489Z,9.23
2023-09-28T19:06:48.496Z,7.23
2023-09-28T19:08:50.893Z,6.17
2023-09-28T19:10:58.006Z,6.20
2023-09-28T19:12:59.962Z,6.90
2023-09-28T19:15:03.952Z,6.63
2023-09-28T19:17:05.654Z,7.03
2023-09-28T19:19:07.469Z,9.17
2023-09-28T19:21:11.081Z,7.70
2023-09-28T19:23:13.216Z,7.27
2023-09-28T19:25:15.485Z,7.00
2023-09-28T19:27:31.952Z,8.73
2023-09-28T19:29:37.930Z,7.20
2023-09-28T19:31:40.209Z,9.83
2023-09-28T19:33:42.521Z,6.97
2023-09-28T19:35:44.592Z,8.50
2023-09-28T19:37:47.790Z,6.77
2023-09-28T19:39:49.672Z,8.37
2023-09-28T19:41:52.020Z,7.80
2023-09-28T19:43:54.569Z,8.67
2023-09-28T19:45:56.689Z,6.83
2023-09-28T19:48:01.905Z,8.30
2023-09-28T19:50:05.082Z,7.47
2023-09-28T19:52:07.788Z,8.67
2023-09-28T19:54:11.230Z,7.20
2023-09-28T19:56:20.679Z,7.57
2023-09-28T19:58:24.072Z,7.20
2023-09-28T20:00:28.377Z,6.43
2023-09-28T20:02:30.087Z,7.40
2023-09-28T20:04:31.933Z,8.53
2023-09-28T20:06:33.809Z,7.13
2023-09-28T20:08:35.572Z,7.40
2023-09-28T20:10:39.145Z,7.03
2023-09-28T20:12:41.535Z,10.03
2023-09-28T20:14:43.823Z,9.00
2023-09-28T20:16:45.721Z,7.70
2023-09-28T20:18:47.578Z,7.77
2023-09-28T20:20:49.427Z,6.90
2023-09-28T20:22:57.268Z,6.30
2023-09-28T20:24:59.879Z,6.40
2023-09-28T20:27:03.060Z,6.77
2023-09-28T20:29:05.125Z,8.90
2023-09-28T20:31:07.100Z,7.57
2023-09-28T20:33:11.239Z,8.43
2023-09-28T20:35:13.156Z,7.13
2023-09-28T20:37:16.303Z,6.67
2023-09-28T20:39:17.959Z,10.40
2023-09-28T20:41:19.523Z,7.60
2023-09-28T20:43:22.688Z,6.70
2023-09-28T20:45:24.469Z,7.73
2023-09-28T20:47:26.507Z,7.40
2023-09-28T20:49:28.470Z,8.20
2023-09-28T20:51:31.858Z,6.50
2023-09-28T20:53:33.642Z,7.47
2023-09-28T20:55:35.388Z,7.80
2023-09-28T20:57:37.264Z,8.00
2023-09-28T20:59:40.755Z,7.60
2023-09-28T21:01:42.755Z,7.73
2023-09-28T21:03:45.585Z,8.13
2023-09-28T21:05:47.695Z,7.80
2023-09-28T21:07:50.801Z,7.20
2023-09-28T21:09:53.000Z,7.70
2023-09-28T21:11:54.714Z,8.33
2023-09-28T21:13:56.693Z,8.17
2023-09-28T21:16:01.436Z,10.27
2023-09-28T21:18:04.881Z,8.50
2023-09-28T21:20:07.602Z,6.93
2023-09-28T21:22:09.489Z,7.17
2023-09-28T21:24:11.368Z,7.43
2023-09-28T21:26:13.054Z,7.40
2023-09-28T21:28:14.938Z,8.47
2023-09-28T21:30:17.074Z,6.90
2023-09-28T21:32:20.151Z,6.90
2023-09-28T21:34:22.280Z,7.70
2023-09-28T21:36:24.210Z,6.47
2023-09-28T21:38:26.162Z,7.83
2023-09-28T21:40:28.454Z,7.47
2023-09-28T21:42:30.378Z,8.00
2023-09-28T21:44:32.110Z,7.50
2023-09-28T21:46:33.987Z,6.70
2023-09-28T21:48:39.254Z,6.80
2023-09-28T21:50:41.001Z,7.20
2023-09-28T21:52:42.795Z,7.47
2023-09-28T21:54:44.466Z,7.80
2023-09-28T21:56:46.333Z,7.60
2023-09-28T21:58:48.431Z,9.10
2023-09-28T22:00:50.229Z,7.77
2023-09-28T22:02:51.930Z,8.07
2023-09-28T22:04:55.047Z,7.30
2023-09-28T22:06:58.073Z,6.80
2023-09-28T22:08:59.854Z,6.87
2023-09-28T22:11:01.672Z,8.53
2023-09-28T22:13:03.393Z,7.53
2023-09-28T22:15:06.359Z,6.83
2023-09-28T22:17:08.293Z,9.30
2023-09-28T22:19:09.940Z,6.80
2023-09-28T22:21:12.993Z,7.90
2023-09-28T22:23:14.748Z,7.77
2023-09-28T22:25:16.846Z,7.87
2023-09-28T22:27:18.823Z,6.97
2023-09-28T22:29:20.583Z,10.33
2023-09-28T22:31:22.398Z,10.53
2023-09-28T22:33:24.214Z,8.30
2023-09-28T22:35:25.953Z,7.43
2023-09-28T22:37:33.373Z,8.57
2023-09-28T22:39:35.020Z,8.60
2023-09-28T22:41:37.722Z,8.37
2023-09-28T22:43:39.399Z,8.47
2023-09-28T22:45:41.241Z,6.73
2023-09-28T22:47:46.371Z,7.70
2023-09-28T22:49:48.033Z,7.07
2023-09-28T22:51:49.774Z,6.93
2023-09-28T22:53:53.289Z,7.00
2023-09-28T22:55:54.999Z,7.23
2023-09-28T22:57:56.650Z,7.03
2023-09-28T22:59:58.398Z,7.43
2023-09-28T23:02:00.311Z,8.87
2023-09-28T23:04:02.544Z,8.63
2023-09-28T23:06:06.991Z,7.23
2023-09-28T23:08:08.978Z,7.20
2023-09-28T23:10:12.122Z,7.73
2023-09-28T23:12:13.978Z,7.43
2023-09-28T23:14:15.777Z,7.57
2023-09-28T23:16:17.579Z,8.70
2023-09-28T23:18:20.077Z,8.50
2023-09-28T23:20:21.834Z,7.87
2023-09-28T23:22:23.498Z,7.40
2023-09-28T23:24:25.259Z,7.00
2023-09-28T23:26:28.491Z,8.23
2023-09-28T23:28:30.441Z,7.77
2023-09-28T23:30:32.102Z,7.60
2023-09-28T23:32:33.910Z,8.63
2023-09-28T23:34:35.646Z,8.40
2023-09-28T23:36:37.603Z,9.13
2023-09-28T23:38:39.336Z,6.97
2023-09-28T23:40:41.078Z,9.10
2023-09-28T23:42:44.887Z,9.17
2023-09-28T23:44:46.626Z,8.87
2023-09-28T23:46:48.249Z,9.47
2023-09-28T23:48:49.913Z,8.90
2023-09-28T23:50:51.587Z,7.73
2023-09-28T23:52:54.552Z,8.67
2023-09-28T23:54:56.143Z,8.83
2023-09-28T23:56:57.859Z,8.30
2023-09-28T23:59:00.884Z,9.33
